sensor_id;sensor_type;location;lat;lon;timestamp;P1;durP1;ratioP1;P2;durP2;ratioP2
60312;SDS011;46158;52.850;6.970;2023-04-19T00:01:59;10.85;;;4.05;;
60312;SDS011;46158;52.850;6.970;2023-04-19T00:04:26;11.25;;;4.15;;
60312;SDS011;46158;52.850;6.970;2023-04-19T00:06:51;10.60;;;4.40;;
60312;SDS011;46158;52.850;6.970;2023-04-19T00:09:17;10.63;;;3.88;;
60312;SDS011;46158;52.850;6.970;2023-04-19T00:11:43;10.45;;;4.30;;
60312;SDS011;46158;52.850;6.970;2023-04-19T00:14:09;10.15;;;3.92;;
60312;SDS011;46158;52.850;6.970;2023-04-19T00:16:35;12.32;;;4.28;;
60312;SDS011;46158;52.850;6.970;2023-04-19T00:19:00;11.52;;;4.22;;
60312;SDS011;46158;52.850;6.970;2023-04-19T00:21:26;9.15;;;3.72;;
60312;SDS011;46158;52.850;6.970;2023-04-19T00:23:52;11.02;;;4.20;;
60312;SDS011;46158;52.850;6.970;2023-04-19T00:26:18;10.68;;;3.85;;
60312;SDS011;46158;52.850;6.970;2023-04-19T00:28:44;11.35;;;4.10;;
60312;SDS011;46158;52.850;6.970;2023-04-19T00:31:10;9.90;;;3.97;;
60312;SDS011;46158;52.850;6.970;2023-04-19T00:33:36;10.57;;;3.95;;
60312;SDS011;46158;52.850;6.970;2023-04-19T00:36:01;10.45;;;4.15;;
60312;SDS011;46158;52.850;6.970;2023-04-19T00:38:27;11.18;;;4.15;;
60312;SDS011;46158;52.850;6.970;2023-04-19T00:40:53;12.82;;;4.28;;
60312;SDS011;46158;52.850;6.970;2023-04-19T00:43:18;10.88;;;4.07;;
60312;SDS011;46158;52.850;6.970;2023-04-19T00:45:45;11.45;;;4.10;;
60312;SDS011;46158;52.850;6.970;2023-04-19T00:48:12;10.70;;;3.75;;
60312;SDS011;46158;52.850;6.970;2023-04-19T00:50:38;9.52;;;3.80;;
60312;SDS011;46158;52.850;6.970;2023-04-19T00:53:06;10.73;;;4.00;;
60312;SDS011;46158;52.850;6.970;2023-04-19T00:55:32;10.15;;;4.13;;
60312;SDS011;46158;52.850;6.970;2023-04-19T00:57:57;12.57;;;4.32;;
60312;SDS011;46158;52.850;6.970;2023-04-19T01:00:24;11.50;;;4.00;;
60312;SDS011;46158;52.850;6.970;2023-04-19T01:02:50;9.65;;;3.88;;
60312;SDS011;46158;52.850;6.970;2023-04-19T01:05:16;9.70;;;3.92;;
60312;SDS011;46158;52.850;6.970;2023-04-19T01:07:42;10.55;;;3.90;;
60312;SDS011;46158;52.850;6.970;2023-04-19T01:10:08;9.77;;;3.78;;
60312;SDS011;46158;52.850;6.970;2023-04-19T01:12:34;11.15;;;4.32;;
60312;SDS011;46158;52.850;6.970;2023-04-19T01:15:00;10.32;;;4.07;;
60312;SDS011;46158;52.850;6.970;2023-04-19T01:17:27;8.35;;;3.70;;
60312;SDS011;46158;52.850;6.970;2023-04-19T01:19:59;9.85;;;4.20;;
60312;SDS011;46158;52.850;6.970;2023-04-19T01:22:26;10.25;;;4.00;;
60312;SDS011;46158;52.850;6.970;2023-04-19T01:24:54;10.32;;;4.03;;
60312;SDS011;46158;52.850;6.970;2023-04-19T01:27:21;9.82;;;3.78;;
60312;SDS011;46158;52.850;6.970;2023-04-19T01:29:48;9.38;;;4.00;;
60312;SDS011;46158;52.850;6.970;2023-04-19T01:32:14;11.50;;;4.10;;
60312;SDS011;46158;52.850;6.970;2023-04-19T01:34:41;11.63;;;4.00;;
60312;SDS011;46158;52.850;6.970;2023-04-19T01:37:07;11.32;;;4.32;;
60312;SDS011;46158;52.850;6.970;2023-04-19T01:42:20;9.85;;;4.03;;
60312;SDS011;46158;52.850;6.970;2023-04-19T01:44:46;11.02;;;4.20;;
60312;SDS011;46158;52.850;6.970;2023-04-19T01:47:11;12.70;;;3.83;;
60312;SDS011;46158;52.850;6.970;2023-04-19T01:49:49;12.50;;;4.22;;
60312;SDS011;46158;52.850;6.970;2023-04-19T01:52:18;9.40;;;3.80;;
60312;SDS011;46158;52.850;6.970;2023-04-19T01:54:44;11.60;;;4.00;;
60312;SDS011;46158;52.850;6.970;2023-04-19T01:57:10;11.32;;;4.03;;
60312;SDS011;46158;52.850;6.970;2023-04-19T01:59:36;9.98;;;3.92;;
60312;SDS011;46158;52.850;6.970;2023-04-19T02:02:01;11.23;;;4.20;;
60312;SDS011;46158;52.850;6.970;2023-04-19T02:04:30;9.95;;;4.03;;
60312;SDS011;46158;52.850;6.970;2023-04-19T02:06:58;11.95;;;4.50;;
60312;SDS011;46158;52.850;6.970;2023-04-19T02:09:23;11.25;;;4.35;;
60312;SDS011;46158;52.850;6.970;2023-04-19T02:11:49;9.38;;;3.80;;
60312;SDS011;46158;52.850;6.970;2023-04-19T02:14:15;9.40;;;4.07;;
60312;SDS011;46158;52.850;6.970;2023-04-19T02:16:41;10.38;;;4.10;;
60312;SDS011;46158;52.850;6.970;2023-04-19T02:19:07;8.80;;;3.88;;
60312;SDS011;46158;52.850;6.970;2023-04-19T02:21:32;11.85;;;4.50;;
60312;SDS011;46158;52.850;6.970;2023-04-19T02:23:58;10.55;;;4.10;;
60312;SDS011;46158;52.850;6.970;2023-04-19T02:26:25;11.00;;;4.30;;
60312;SDS011;46158;52.850;6.970;2023-04-19T02:28:51;10.90;;;4.20;;
60312;SDS011;46158;52.850;6.970;2023-04-19T02:31:17;9.80;;;3.88;;
60312;SDS011;46158;52.850;6.970;2023-04-19T02:33:43;10.88;;;4.13;;
60312;SDS011;46158;52.850;6.970;2023-04-19T02:36:10;12.25;;;4.32;;
60312;SDS011;46158;52.850;6.970;2023-04-19T02:38:36;9.93;;;4.03;;
60312;SDS011;46158;52.850;6.970;2023-04-19T02:41:02;10.48;;;4.45;;
60312;SDS011;46158;52.850;6.970;2023-04-19T02:43:30;11.23;;;4.10;;
60312;SDS011;46158;52.850;6.970;2023-04-19T02:45:55;10.48;;;4.03;;
60312;SDS011;46158;52.850;6.970;2023-04-19T02:48:21;9.73;;;3.95;;
60312;SDS011;46158;52.850;6.970;2023-04-19T02:50:47;10.20;;;3.80;;
60312;SDS011;46158;52.850;6.970;2023-04-19T02:53:12;13.15;;;4.38;;
60312;SDS011;46158;52.850;6.970;2023-04-19T02:55:38;10.60;;;4.20;;
60312;SDS011;46158;52.850;6.970;2023-04-19T02:58:04;10.68;;;4.03;;
60312;SDS011;46158;52.850;6.970;2023-04-19T03:00:30;11.00;;;4.10;;
60312;SDS011;46158;52.850;6.970;2023-04-19T03:02:56;12.95;;;4.30;;
60312;SDS011;46158;52.850;6.970;2023-04-19T03:05:22;10.00;;;4.25;;
60312;SDS011;46158;52.850;6.970;2023-04-19T03:07:48;11.00;;;4.50;;
60312;SDS011;46158;52.850;6.970;2023-04-19T03:10:14;8.75;;;4.10;;
60312;SDS011;46158;52.850;6.970;2023-04-19T03:12:39;12.20;;;4.25;;
60312;SDS011;46158;52.850;6.970;2023-04-19T03:15:06;12.45;;;4.57;;
60312;SDS011;46158;52.850;6.970;2023-04-19T03:17:32;9.18;;;4.00;;
60312;SDS011;46158;52.850;6.970;2023-04-19T03:19:58;11.23;;;4.18;;
60312;SDS011;46158;52.850;6.970;2023-04-19T03:22:24;11.20;;;4.63;;
60312;SDS011;46158;52.850;6.970;2023-04-19T03:24:52;13.05;;;4.40;;
60312;SDS011;46158;52.850;6.970;2023-04-19T03:27:18;9.63;;;4.07;;
60312;SDS011;46158;52.850;6.970;2023-04-19T03:29:44;9.45;;;4.00;;
60312;SDS011;46158;52.850;6.970;2023-04-19T03:32:09;10.50;;;4.00;;
60312;SDS011;46158;52.850;6.970;2023-04-19T03:34:35;14.15;;;4.53;;
60312;SDS011;46158;52.850;6.970;2023-04-19T03:37:01;10.60;;;4.13;;
60312;SDS011;46158;52.850;6.970;2023-04-19T03:39:26;11.82;;;4.20;;
60312;SDS011;46158;52.850;6.970;2023-04-19T03:41:52;9.48;;;3.92;;
60312;SDS011;46158;52.850;6.970;2023-04-19T03:44:18;12.00;;;4.45;;
60312;SDS011;46158;52.850;6.970;2023-04-19T03:46:43;10.98;;;4.10;;
60312;SDS011;46158;52.850;6.970;2023-04-19T03:49:10;12.43;;;4.22;;
60312;SDS011;46158;52.850;6.970;2023-04-19T03:51:36;11.00;;;4.00;;
60312;SDS011;46158;52.850;6.970;2023-04-19T03:54:01;10.70;;;4.30;;
60312;SDS011;46158;52.850;6.970;2023-04-19T03:56:27;11.38;;;4.10;;
60312;SDS011;46158;52.850;6.970;2023-04-19T03:58:53;10.52;;;4.15;;
60312;SDS011;46158;52.850;6.970;2023-04-19T04:01:20;10.98;;;4.15;;
60312;SDS011;46158;52.850;6.970;2023-04-19T04:03:46;11.10;;;3.92;;
60312;SDS011;46158;52.850;6.970;2023-04-19T04:06:12;9.00;;;3.60;;
60312;SDS011;46158;52.850;6.970;2023-04-19T04:08:38;7.80;;;3.55;;
60312;SDS011;46158;52.850;6.970;2023-04-19T04:11:03;9.32;;;3.80;;
60312;SDS011;46158;52.850;6.970;2023-04-19T04:13:29;9.95;;;3.67;;
60312;SDS011;46158;52.850;6.970;2023-04-19T04:15:55;8.52;;;3.50;;
60312;SDS011;46158;52.850;6.970;2023-04-19T04:18:20;9.27;;;3.33;;
60312;SDS011;46158;52.850;6.970;2023-04-19T04:20:51;7.38;;;3.40;;
60312;SDS011;46158;52.850;6.970;2023-04-19T04:23:19;8.15;;;3.38;;
60312;SDS011;46158;52.850;6.970;2023-04-19T04:25:45;9.35;;;3.33;;
60312;SDS011;46158;52.850;6.970;2023-04-19T04:28:11;9.63;;;3.20;;
60312;SDS011;46158;52.850;6.970;2023-04-19T04:30:38;6.53;;;3.00;;
60312;SDS011;46158;52.850;6.970;2023-04-19T04:33:06;8.57;;;3.33;;
60312;SDS011;46158;52.850;6.970;2023-04-19T04:35:32;8.15;;;3.20;;
60312;SDS011;46158;52.850;6.970;2023-04-19T04:37:59;7.72;;;3.00;;
60312;SDS011;46158;52.850;6.970;2023-04-19T04:40:25;9.20;;;3.47;;
60312;SDS011;46158;52.850;6.970;2023-04-19T04:42:50;8.05;;;3.40;;
60312;SDS011;46158;52.850;6.970;2023-04-19T04:45:17;7.07;;;3.17;;
60312;SDS011;46158;52.850;6.970;2023-04-19T04:47:42;6.97;;;3.17;;
60312;SDS011;46158;52.850;6.970;2023-04-19T04:50:10;7.57;;;3.33;;
60312;SDS011;46158;52.850;6.970;2023-04-19T04:52:35;8.43;;;3.50;;
60312;SDS011;46158;52.850;6.970;2023-04-19T04:55:01;6.07;;;2.90;;
60312;SDS011;46158;52.850;6.970;2023-04-19T04:57:31;9.43;;;3.63;;
60312;SDS011;46158;52.850;6.970;2023-04-19T04:59:57;7.72;;;3.10;;
60312;SDS011;46158;52.850;6.970;2023-04-19T05:02:26;10.02;;;3.20;;
60312;SDS011;46158;52.850;6.970;2023-04-19T05:04:52;10.88;;;3.60;;
60312;SDS011;46158;52.850;6.970;2023-04-19T05:07:20;12.02;;;3.70;;
60312;SDS011;46158;52.850;6.970;2023-04-19T05:09:47;10.93;;;3.40;;
60312;SDS011;46158;52.850;6.970;2023-04-19T05:12:13;14.13;;;4.18;;
60312;SDS011;46158;52.850;6.970;2023-04-19T05:14:39;10.70;;;3.60;;
60312;SDS011;46158;52.850;6.970;2023-04-19T05:17:05;10.93;;;3.80;;
60312;SDS011;46158;52.850;6.970;2023-04-19T05:19:31;11.23;;;3.60;;
60312;SDS011;46158;52.850;6.970;2023-04-19T05:21:56;11.88;;;3.65;;
60312;SDS011;46158;52.850;6.970;2023-04-19T05:24:22;10.23;;;3.40;;
60312;SDS011;46158;52.850;6.970;2023-04-19T05:26:48;13.98;;;3.88;;
60312;SDS011;46158;52.850;6.970;2023-04-19T05:29:14;13.90;;;4.13;;
60312;SDS011;46158;52.850;6.970;2023-04-19T05:31:41;14.98;;;3.95;;
60312;SDS011;46158;52.850;6.970;2023-04-19T05:34:06;14.70;;;4.20;;
60312;SDS011;46158;52.850;6.970;2023-04-19T05:36:33;10.30;;;3.53;;
60312;SDS011;46158;52.850;6.970;2023-04-19T05:38:59;13.32;;;4.10;;
60312;SDS011;46158;52.850;6.970;2023-04-19T05:41:25;15.38;;;4.03;;
60312;SDS011;46158;52.850;6.970;2023-04-19T05:43:51;12.95;;;4.03;;
60312;SDS011;46158;52.850;6.970;2023-04-19T05:46:26;14.07;;;4.03;;
60312;SDS011;46158;52.850;6.970;2023-04-19T05:48:52;13.60;;;3.80;;
60312;SDS011;46158;52.850;6.970;2023-04-19T05:51:18;11.50;;;3.60;;
60312;SDS011;46158;52.850;6.970;2023-04-19T05:53:44;13.02;;;3.60;;
60312;SDS011;46158;52.850;6.970;2023-04-19T05:56:10;12.00;;;3.58;;
60312;SDS011;46158;52.850;6.970;2023-04-19T05:58:36;13.18;;;3.60;;
60312;SDS011;46158;52.850;6.970;2023-04-19T06:01:02;15.80;;;4.18;;
60312;SDS011;46158;52.850;6.970;2023-04-19T06:03:28;14.40;;;3.92;;
60312;SDS011;46158;52.850;6.970;2023-04-19T06:06:00;12.43;;;4.18;;
60312;SDS011;46158;52.850;6.970;2023-04-19T06:08:26;12.18;;;3.65;;
60312;SDS011;46158;52.850;6.970;2023-04-19T06:10:51;14.82;;;3.88;;
60312;SDS011;46158;52.850;6.970;2023-04-19T06:13:18;13.98;;;3.92;;
60312;SDS011;46158;52.850;6.970;2023-04-19T06:15:44;12.30;;;3.90;;
60312;SDS011;46158;52.850;6.970;2023-04-19T06:18:13;9.73;;;3.42;;
60312;SDS011;46158;52.850;6.970;2023-04-19T06:20:39;15.35;;;4.25;;
60312;SDS011;46158;52.850;6.970;2023-04-19T06:23:06;13.63;;;3.55;;
60312;SDS011;46158;52.850;6.970;2023-04-19T06:25:34;12.45;;;3.50;;
60312;SDS011;46158;52.850;6.970;2023-04-19T06:28:00;12.75;;;3.50;;
60312;SDS011;46158;52.850;6.970;2023-04-19T06:30:26;9.75;;;3.88;;
60312;SDS011;46158;52.850;6.970;2023-04-19T06:32:52;14.75;;;4.05;;
60312;SDS011;46158;52.850;6.970;2023-04-19T06:35:18;13.15;;;3.53;;
60312;SDS011;46158;52.850;6.970;2023-04-19T06:37:47;11.57;;;3.40;;
60312;SDS011;46158;52.850;6.970;2023-04-19T06:40:16;10.27;;;3.40;;
60312;SDS011;46158;52.850;6.970;2023-04-19T06:42:42;10.27;;;3.42;;
60312;SDS011;46158;52.850;6.970;2023-04-19T06:45:11;12.60;;;3.70;;
60312;SDS011;46158;52.850;6.970;2023-04-19T06:47:37;11.23;;;3.33;;
60312;SDS011;46158;52.850;6.970;2023-04-19T06:50:07;11.67;;;3.50;;
60312;SDS011;46158;52.850;6.970;2023-04-19T06:52:37;10.35;;;2.95;;
60312;SDS011;46158;52.850;6.970;2023-04-19T06:55:07;8.75;;;3.17;;
60312;SDS011;46158;52.850;6.970;2023-04-19T06:57:33;12.50;;;3.70;;
60312;SDS011;46158;52.850;6.970;2023-04-19T06:59:59;11.18;;;3.20;;
60312;SDS011;46158;52.850;6.970;2023-04-19T07:02:25;11.05;;;3.60;;
60312;SDS011;46158;52.850;6.970;2023-04-19T07:04:51;9.57;;;3.20;;
60312;SDS011;46158;52.850;6.970;2023-04-19T07:07:17;7.90;;;3.05;;
60312;SDS011;46158;52.850;6.970;2023-04-19T07:09:43;11.68;;;3.40;;
60312;SDS011;46158;52.850;6.970;2023-04-19T07:12:09;9.23;;;3.05;;
60312;SDS011;46158;52.850;6.970;2023-04-19T07:14:35;8.05;;;3.08;;
60312;SDS011;46158;52.850;6.970;2023-04-19T07:17:02;8.88;;;3.10;;
60312;SDS011;46158;52.850;6.970;2023-04-19T07:19:38;9.52;;;2.90;;
60312;SDS011;46158;52.850;6.970;2023-04-19T07:22:04;8.63;;;2.90;;
60312;SDS011;46158;52.850;6.970;2023-04-19T07:24:30;9.68;;;3.22;;
60312;SDS011;46158;52.850;6.970;2023-04-19T07:26:56;9.82;;;3.20;;
60312;SDS011;46158;52.850;6.970;2023-04-19T07:29:22;9.95;;;3.10;;
60312;SDS011;46158;52.850;6.970;2023-04-19T07:31:48;11.75;;;3.30;;
60312;SDS011;46158;52.850;6.970;2023-04-19T07:34:14;6.25;;;2.90;;
60312;SDS011;46158;52.850;6.970;2023-04-19T07:36:40;10.38;;;3.08;;
60312;SDS011;46158;52.850;6.970;2023-04-19T07:39:06;7.72;;;2.78;;
60312;SDS011;46158;52.850;6.970;2023-04-19T07:41:32;9.48;;;2.90;;
60312;SDS011;46158;52.850;6.970;2023-04-19T07:43:58;6.63;;;2.70;;
60312;SDS011;46158;52.850;6.970;2023-04-19T07:46:24;7.90;;;2.50;;
60312;SDS011;46158;52.850;6.970;2023-04-19T07:48:50;8.32;;;2.85;;
60312;SDS011;46158;52.850;6.970;2023-04-19T07:51:16;8.02;;;2.80;;
60312;SDS011;46158;52.850;6.970;2023-04-19T07:53:43;10.50;;;2.95;;
60312;SDS011;46158;52.850;6.970;2023-04-19T07:56:13;9.43;;;2.67;;
60312;SDS011;46158;52.850;6.970;2023-04-19T07:58:39;6.72;;;2.80;;
60312;SDS011;46158;52.850;6.970;2023-04-19T08:01:05;8.48;;;2.70;;
60312;SDS011;46158;52.850;6.970;2023-04-19T08:03:35;8.70;;;2.70;;
60312;SDS011;46158;52.850;6.970;2023-04-19T08:06:06;6.85;;;2.70;;
60312;SDS011;46158;52.850;6.970;2023-04-19T08:08:37;6.53;;;2.65;;
60312;SDS011;46158;52.850;6.970;2023-04-19T08:11:03;5.80;;;2.70;;
60312;SDS011;46158;52.850;6.970;2023-04-19T08:13:30;6.63;;;2.63;;
60312;SDS011;46158;52.850;6.970;2023-04-19T08:15:56;7.00;;;2.75;;
60312;SDS011;46158;52.850;6.970;2023-04-19T08:18:21;6.60;;;2.60;;
60312;SDS011;46158;52.850;6.970;2023-04-19T08:20:48;5.78;;;2.75;;
60312;SDS011;46158;52.850;6.970;2023-04-19T08:23:17;7.25;;;2.55;;
60312;SDS011;46158;52.850;6.970;2023-04-19T08:25:43;9.02;;;2.95;;
60312;SDS011;46158;52.850;6.970;2023-04-19T08:28:09;5.55;;;2.60;;
60312;SDS011;46158;52.850;6.970;2023-04-19T08:30:36;8.05;;;2.70;;
60312;SDS011;46158;52.850;6.970;2023-04-19T08:33:02;9.73;;;2.75;;
60312;SDS011;46158;52.850;6.970;2023-04-19T08:35:28;8.88;;;2.72;;
60312;SDS011;46158;52.850;6.970;2023-04-19T08:37:54;7.13;;;2.45;;
60312;SDS011;46158;52.850;6.970;2023-04-19T08:40:20;7.07;;;2.72;;
60312;SDS011;46158;52.850;6.970;2023-04-19T08:42:47;5.35;;;2.70;;
60312;SDS011;46158;52.850;6.970;2023-04-19T08:45:14;8.02;;;2.75;;
60312;SDS011;46158;52.850;6.970;2023-04-19T08:47:44;5.20;;;2.67;;
60312;SDS011;46158;52.850;6.970;2023-04-19T08:50:10;8.45;;;3.00;;
60312;SDS011;46158;52.850;6.970;2023-04-19T08:52:36;7.70;;;2.70;;
60312;SDS011;46158;52.850;6.970;2023-04-19T08:55:03;8.13;;;2.55;;
60312;SDS011;46158;52.850;6.970;2023-04-19T08:57:31;7.25;;;2.67;;
60312;SDS011;46158;52.850;6.970;2023-04-19T09:00:20;6.22;;;2.50;;
60312;SDS011;46158;52.850;6.970;2023-04-19T09:02:49;5.35;;;2.50;;
60312;SDS011;46158;52.850;6.970;2023-04-19T09:05:19;7.70;;;2.50;;
60312;SDS011;46158;52.850;6.970;2023-04-19T09:07:45;8.75;;;2.80;;
60312;SDS011;46158;52.850;6.970;2023-04-19T09:10:16;5.80;;;2.67;;
60312;SDS011;46158;52.850;6.970;2023-04-19T09:12:58;7.65;;;2.60;;
60312;SDS011;46158;52.850;6.970;2023-04-19T09:15:38;6.18;;;2.42;;
60312;SDS011;46158;52.850;6.970;2023-04-19T09:18:06;5.93;;;2.50;;
60312;SDS011;46158;52.850;6.970;2023-04-19T09:20:37;6.45;;;2.40;;
60312;SDS011;46158;52.850;6.970;2023-04-19T09:23:05;5.72;;;2.20;;
60312;SDS011;46158;52.850;6.970;2023-04-19T09:28:22;7.65;;;2.70;;
60312;SDS011;46158;52.850;6.970;2023-04-19T09:30:54;5.97;;;2.50;;
60312;SDS011;46158;52.850;6.970;2023-04-19T09:33:50;10.20;;;2.60;;
60312;SDS011;46158;52.850;6.970;2023-04-19T09:36:25;5.03;;;2.30;;
60312;SDS011;46158;52.850;6.970;2023-04-19T09:38:58;7.75;;;2.40;;
60312;SDS011;46158;52.850;6.970;2023-04-19T09:41:29;9.57;;;2.70;;
60312;SDS011;46158;52.850;6.970;2023-04-19T09:44:10;4.28;;;2.20;;
60312;SDS011;46158;52.850;6.970;2023-04-19T09:46:39;7.25;;;2.40;;
60312;SDS011;46158;52.850;6.970;2023-04-19T09:51:44;4.00;;;2.17;;
60312;SDS011;46158;52.850;6.970;2023-04-19T09:54:15;5.07;;;2.50;;
60312;SDS011;46158;52.850;6.970;2023-04-19T09:56:43;4.25;;;2.50;;
60312;SDS011;46158;52.850;6.970;2023-04-19T09:59:09;6.55;;;2.55;;
60312;SDS011;46158;52.850;6.970;2023-04-19T10:04:10;5.63;;;2.40;;
60312;SDS011;46158;52.850;6.970;2023-04-19T10:06:38;7.05;;;2.42;;
60312;SDS011;46158;52.850;6.970;2023-04-19T10:09:05;5.95;;;2.30;;
60312;SDS011;46158;52.850;6.970;2023-04-19T10:11:35;5.22;;;2.33;;
60312;SDS011;46158;52.850;6.970;2023-04-19T10:14:06;7.18;;;2.42;;
60312;SDS011;46158;52.850;6.970;2023-04-19T10:16:37;5.32;;;2.30;;
60312;SDS011;46158;52.850;6.970;2023-04-19T10:19:05;5.65;;;2.30;;
60312;SDS011;46158;52.850;6.970;2023-04-19T10:21:33;5.40;;;2.33;;
60312;SDS011;46158;52.850;6.970;2023-04-19T10:24:00;4.22;;;2.13;;
60312;SDS011;46158;52.850;6.970;2023-04-19T10:26:26;6.18;;;2.30;;
60312;SDS011;46158;52.850;6.970;2023-04-19T10:28:53;6.20;;;2.40;;
60312;SDS011;46158;52.850;6.970;2023-04-19T10:31:20;6.85;;;2.20;;
60312;SDS011;46158;52.850;6.970;2023-04-19T10:33:47;4.68;;;2.05;;
60312;SDS011;46158;52.850;6.970;2023-04-19T10:36:15;6.63;;;2.25;;
60312;SDS011;46158;52.850;6.970;2023-04-19T10:38:47;4.07;;;2.20;;
60312;SDS011;46158;52.850;6.970;2023-04-19T10:41:18;4.95;;;2.20;;
60312;SDS011;46158;52.850;6.970;2023-04-19T10:53:59;5.50;;;2.22;;
60312;SDS011;46158;52.850;6.970;2023-04-19T11:04:20;5.47;;;2.30;;
60312;SDS011;46158;52.850;6.970;2023-04-19T11:07:11;5.13;;;2.30;;
60312;SDS011;46158;52.850;6.970;2023-04-19T11:09:44;6.22;;;2.50;;
60312;SDS011;46158;52.850;6.970;2023-04-19T11:12:11;5.45;;;2.20;;
60312;SDS011;46158;52.850;6.970;2023-04-19T11:14:48;3.33;;;2.28;;
60312;SDS011;46158;52.850;6.970;2023-04-19T11:17:25;4.32;;;2.08;;
60312;SDS011;46158;52.850;6.970;2023-04-19T11:20:02;4.82;;;2.20;;
60312;SDS011;46158;52.850;6.970;2023-04-19T11:22:35;3.28;;;2.10;;
60312;SDS011;46158;52.850;6.970;2023-04-19T11:25:05;11.13;;;2.40;;
60312;SDS011;46158;52.850;6.970;2023-04-19T11:27:46;3.50;;;2.20;;
60312;SDS011;46158;52.850;6.970;2023-04-19T11:30:20;5.25;;;2.30;;
60312;SDS011;46158;52.850;6.970;2023-04-19T11:32:48;5.82;;;2.30;;
60312;SDS011;46158;52.850;6.970;2023-04-19T11:35:20;7.25;;;2.30;;
60312;SDS011;46158;52.850;6.970;2023-04-19T11:37:47;5.15;;;2.20;;
60312;SDS011;46158;52.850;6.970;2023-04-19T11:40:16;8.02;;;2.33;;
60312;SDS011;46158;52.850;6.970;2023-04-19T11:42:43;3.88;;;2.03;;
60312;SDS011;46158;52.850;6.970;2023-04-19T11:45:23;6.45;;;2.15;;
60312;SDS011;46158;52.850;6.970;2023-04-19T11:47:50;6.32;;;2.10;;
60312;SDS011;46158;52.850;6.970;2023-04-19T11:53:19;8.38;;;2.85;;
60312;SDS011;46158;52.850;6.970;2023-04-19T12:00:53;4.60;;;2.25;;
60312;SDS011;46158;52.850;6.970;2023-04-19T12:03:20;3.75;;;2.17;;
60312;SDS011;46158;52.850;6.970;2023-04-19T12:06:00;4.05;;;2.10;;
60312;SDS011;46158;52.850;6.970;2023-04-19T12:08:37;5.65;;;2.40;;
60312;SDS011;46158;52.850;6.970;2023-04-19T12:11:08;5.97;;;2.20;;
60312;SDS011;46158;52.850;6.970;2023-04-19T12:16:04;4.20;;;2.20;;
60312;SDS011;46158;52.850;6.970;2023-04-19T12:18:43;5.57;;;2.20;;
60312;SDS011;46158;52.850;6.970;2023-04-19T12:21:23;3.42;;;2.20;;
60312;SDS011;46158;52.850;6.970;2023-04-19T12:23:54;5.20;;;2.33;;
60312;SDS011;46158;52.850;6.970;2023-04-19T12:26:27;5.68;;;2.30;;
60312;SDS011;46158;52.850;6.970;2023-04-19T12:28:54;3.97;;;2.00;;
60312;SDS011;46158;52.850;6.970;2023-04-19T12:31:24;4.40;;;2.28;;
60312;SDS011;46158;52.850;6.970;2023-04-19T12:33:51;2.90;;;2.10;;
60312;SDS011;46158;52.850;6.970;2023-04-19T12:36:20;3.90;;;2.10;;
60312;SDS011;46158;52.850;6.970;2023-04-19T12:38:46;3.92;;;2.10;;
60312;SDS011;46158;52.850;6.970;2023-04-19T12:41:14;7.97;;;2.80;;
60312;SDS011;46158;52.850;6.970;2023-04-19T12:43:40;4.35;;;2.30;;
60312;SDS011;46158;52.850;6.970;2023-04-19T12:46:09;7.20;;;2.30;;
60312;SDS011;46158;52.850;6.970;2023-04-19T12:48:37;5.93;;;2.40;;
60312;SDS011;46158;52.850;6.970;2023-04-19T12:51:03;6.07;;;2.10;;
60312;SDS011;46158;52.850;6.970;2023-04-19T12:53:29;4.72;;;2.10;;
60312;SDS011;46158;52.850;6.970;2023-04-19T12:55:55;3.47;;;2.30;;
60312;SDS011;46158;52.850;6.970;2023-04-19T12:58:24;7.32;;;2.40;;
60312;SDS011;46158;52.850;6.970;2023-04-19T13:00:53;3.85;;;2.10;;
60312;SDS011;46158;52.850;6.970;2023-04-19T13:03:19;4.55;;;2.25;;
60312;SDS011;46158;52.850;6.970;2023-04-19T13:05:48;5.75;;;2.10;;
60312;SDS011;46158;52.850;6.970;2023-04-19T13:08:17;5.93;;;2.28;;
60312;SDS011;46158;52.850;6.970;2023-04-19T13:10:45;4.40;;;2.15;;
60312;SDS011;46158;52.850;6.970;2023-04-19T13:13:13;5.88;;;2.20;;
60312;SDS011;46158;52.850;6.970;2023-04-19T13:15:40;4.40;;;2.20;;
60312;SDS011;46158;52.850;6.970;2023-04-19T13:18:06;6.00;;;2.17;;
60312;SDS011;46158;52.850;6.970;2023-04-19T13:20:32;6.38;;;2.17;;
60312;SDS011;46158;52.850;6.970;2023-04-19T13:22:58;7.40;;;2.30;;
60312;SDS011;46158;52.850;6.970;2023-04-19T13:25:24;5.97;;;2.35;;
60312;SDS011;46158;52.850;6.970;2023-04-19T13:27:50;4.70;;;2.30;;
60312;SDS011;46158;52.850;6.970;2023-04-19T13:30:24;5.18;;;2.05;;
60312;SDS011;46158;52.850;6.970;2023-04-19T13:32:56;3.42;;;2.10;;
60312;SDS011;46158;52.850;6.970;2023-04-19T13:35:31;6.80;;;2.30;;
60312;SDS011;46158;52.850;6.970;2023-04-19T13:38:06;3.17;;;1.95;;
60312;SDS011;46158;52.850;6.970;2023-04-19T13:40:34;4.47;;;2.20;;
60312;SDS011;46158;52.850;6.970;2023-04-19T13:43:00;3.85;;;2.22;;
60312;SDS011;46158;52.850;6.970;2023-04-19T13:45:26;6.03;;;2.30;;
60312;SDS011;46158;52.850;6.970;2023-04-19T13:47:55;2.95;;;2.05;;
60312;SDS011;46158;52.850;6.970;2023-04-19T13:50:23;3.60;;;2.10;;
60312;SDS011;46158;52.850;6.970;2023-04-19T13:52:49;4.78;;;2.15;;
60312;SDS011;46158;52.850;6.970;2023-04-19T13:55:14;4.88;;;2.10;;
60312;SDS011;46158;52.850;6.970;2023-04-19T13:57:42;4.57;;;2.08;;
60312;SDS011;46158;52.850;6.970;2023-04-19T14:00:08;6.07;;;2.28;;
60312;SDS011;46158;52.850;6.970;2023-04-19T14:02:35;4.95;;;2.05;;
60312;SDS011;46158;52.850;6.970;2023-04-19T14:05:01;5.63;;;2.30;;
60312;SDS011;46158;52.850;6.970;2023-04-19T14:07:28;4.93;;;2.20;;
60312;SDS011;46158;52.850;6.970;2023-04-19T14:10:05;5.45;;;2.22;;
60312;SDS011;46158;52.850;6.970;2023-04-19T14:12:33;4.72;;;2.30;;
60312;SDS011;46158;52.850;6.970;2023-04-19T14:14:59;5.25;;;2.10;;
60312;SDS011;46158;52.850;6.970;2023-04-19T14:17:25;4.25;;;2.10;;
60312;SDS011;46158;52.850;6.970;2023-04-19T14:19:51;3.95;;;2.30;;
60312;SDS011;46158;52.850;6.970;2023-04-19T14:22:16;6.45;;;2.20;;
60312;SDS011;46158;52.850;6.970;2023-04-19T14:24:42;4.28;;;2.38;;
60312;SDS011;46158;52.850;6.970;2023-04-19T14:27:08;6.78;;;2.30;;
60312;SDS011;46158;52.850;6.970;2023-04-19T14:29:33;6.35;;;2.30;;
60312;SDS011;46158;52.850;6.970;2023-04-19T14:32:02;5.57;;;2.40;;
60312;SDS011;46158;52.850;6.970;2023-04-19T14:34:32;4.65;;;2.28;;
60312;SDS011;46158;52.850;6.970;2023-04-19T14:36:57;3.95;;;2.08;;
60312;SDS011;46158;52.850;6.970;2023-04-19T14:39:23;4.45;;;2.03;;
60312;SDS011;46158;52.850;6.970;2023-04-19T14:41:50;4.40;;;2.17;;
60312;SDS011;46158;52.850;6.970;2023-04-19T14:44:16;5.00;;;2.30;;
60312;SDS011;46158;52.850;6.970;2023-04-19T14:46:46;6.13;;;2.40;;
60312;SDS011;46158;52.850;6.970;2023-04-19T14:49:17;3.85;;;2.10;;
60312;SDS011;46158;52.850;6.970;2023-04-19T14:51:48;4.38;;;2.10;;
60312;SDS011;46158;52.850;6.970;2023-04-19T14:54:19;7.15;;;2.20;;
60312;SDS011;46158;52.850;6.970;2023-04-19T14:59:18;7.65;;;2.13;;
60312;SDS011;46158;52.850;6.970;2023-04-19T15:01:43;3.95;;;1.92;;
60312;SDS011;46158;52.850;6.970;2023-04-19T15:04:09;3.13;;;1.75;;
60312;SDS011;46158;52.850;6.970;2023-04-19T15:06:35;6.50;;;2.70;;
60312;SDS011;46158;52.850;6.970;2023-04-19T15:09:01;7.78;;;2.75;;
60312;SDS011;46158;52.850;6.970;2023-04-19T15:11:27;7.35;;;2.45;;
60312;SDS011;46158;52.850;6.970;2023-04-19T15:13:53;6.72;;;2.33;;
60312;SDS011;46158;52.850;6.970;2023-04-19T15:16:27;5.43;;;2.40;;
60312;SDS011;46158;52.850;6.970;2023-04-19T15:19:03;7.35;;;2.35;;
60312;SDS011;46158;52.850;6.970;2023-04-19T15:21:31;5.00;;;2.40;;
60312;SDS011;46158;52.850;6.970;2023-04-19T15:23:57;9.65;;;2.35;;
60312;SDS011;46158;52.850;6.970;2023-04-19T15:26:22;3.70;;;2.10;;
60312;SDS011;46158;52.850;6.970;2023-04-19T15:28:58;4.68;;;2.22;;